Time;durP1;ratioP1;P1;durP2;ratioP2;P2;SDS_P1;SDS_P2;PMS_P1;PMS_P2;Temp;Humidity;BMP_temperature;BMP_pressure;BME280_temperature;BME280_humidity;BME280_pressure;Samples;Min_cycle;Max_cycle;Signal;HPM_P1;HPM_P2
2023/10/12 00:01:14;;;;;;;13.50;2.78;;;;;;;;;;5034692;28;19920;-85
2023/10/12 00:03:39;;;;;;;7.45;2.42;;;;;;;;;;5035019;28;20037;-86
2023/10/12 00:06:06;;;;;;;10.85;2.63;;;;;;;;;;5036357;28;20060;-85
2023/10/12 00:08:32;;;;;;;10.77;2.75;;;;;;;;;;5036028;28;20041;-86
2023/10/12 00:10:58;;;;;;;6.20;2.22;;;;;;;;;;5034542;28;20045;-86
2023/10/12 00:13:28;;;;;;;6.38;2.47;;;;;;;;;;5034872;28;20025;-85
2023/10/12 00:15:55;;;;;;;11.57;2.88;;;;;;;;;;5035481;28;20033;-85
2023/10/12 00:18:22;;;;;;;7.25;2.58;;;;;;;;;;5035051;28;20037;-85
2023/10/12 00:20:54;;;;;;;11.73;3.10;;;;;;;;;;5035660;28;20036;-85
2023/10/12 00:23:19;;;;;;;8.95;2.80;;;;;;;;;;5036217;28;20030;-84
2023/10/12 00:25:47;;;;;;;7.22;2.60;;;;;;;;;;5035912;28;20045;-84
2023/10/12 00:28:19;;;;;;;5.78;2.53;;;;;;;;;;5034296;28;20037;-85
2023/10/12 00:30:47;;;;;;;8.48;2.60;;;;;;;;;;5032556;28;20040;-85
2023/10/12 00:33:13;;;;;;;10.00;3.00;;;;;;;;;;5036063;28;20021;-86
2023/10/12 00:35:39;;;;;;;10.65;2.80;;;;;;;;;;5035868;28;20521;-86
2023/10/12 00:38:18;;;;;;;7.88;2.80;;;;;;;;;;5034062;28;20038;-85
2023/10/12 00:40:58;;;;;;;12.18;2.90;;;;;;;;;;5031805;28;20037;-85
2023/10/12 00:43:41;;;;;;;8.23;2.58;;;;;;;;;;5034291;28;20498;-86
2023/10/12 00:46:39;;;;;;;10.30;2.60;;;;;;;;;;5032317;28;20044;-85
2023/10/12 00:49:21;;;;;;;10.25;2.97;;;;;;;;;;5033414;28;20037;-86
2023/10/12 00:51:50;;;;;;;10.52;2.78;;;;;;;;;;5033262;28;20041;-84
2023/10/12 00:54:32;;;;;;;10.50;2.70;;;;;;;;;;5034931;28;20041;-84
2023/10/12 00:57:11;;;;;;;12.88;3.20;;;;;;;;;;5031419;28;20535;-85
2023/10/12 00:59:40;;;;;;;11.27;3.10;;;;;;;;;;5032843;28;20037;-84
2023/10/12 01:02:15;;;;;;;10.20;3.17;;;;;;;;;;5029740;28;20042;-84
2023/10/12 01:04:48;;;;;;;8.98;2.80;;;;;;;;;;5033838;28;20037;-84
2023/10/12 01:07:19;;;;;;;8.65;2.45;;;;;;;;;;5033795;28;20037;-86
2023/10/12 01:09:47;;;;;;;13.05;2.65;;;;;;;;;;5048845;28;20033;-85
2023/10/12 01:12:13;;;;;;;10.23;2.63;;;;;;;;;;5034792;28;20040;-87
2023/10/12 01:14:43;;;;;;;8.48;2.55;;;;;;;;;;5033856;28;20037;-86
2023/10/12 01:17:23;;;;;;;5.82;2.28;;;;;;;;;;5032497;28;20048;-85
2023/10/12 01:19:51;;;;;;;9.27;2.70;;;;;;;;;;5011774;28;20037;-85
2023/10/12 01:22:25;;;;;;;15.88;2.70;;;;;;;;;;5028266;28;20048;-85
2023/10/12 01:27:20;;;;;;;8.10;2.65;;;;;;;;;;5034390;28;20091;-85
2023/10/12 01:29:46;;;;;;;10.07;2.85;;;;;;;;;;5047057;28;20510;-85
2023/10/12 01:34:37;;;;;;;11.75;2.83;;;;;;;;;;5034656;28;20069;-86
2023/10/12 01:40:24;;;;;;;13.75;2.92;;;;;;;;;;5011086;28;20041;-85
2023/10/12 01:45:19;;;;;;;13.88;2.90;;;;;;;;;;5033498;28;20056;-85
2023/10/12 01:47:55;;;;;;;9.10;2.97;;;;;;;;;;5034567;28;20030;-85
2023/10/12 01:50:25;;;;;;;5.60;2.65;;;;;;;;;;5032987;28;20079;-85
2023/10/12 01:52:58;;;;;;;7.75;2.70;;;;;;;;;;5031602;28;20034;-85
2023/10/12 01:55:31;;;;;;;10.38;3.10;;;;;;;;;;5029773;28;20049;-85
2023/10/12 01:57:57;;;;;;;7.88;2.78;;;;;;;;;;5030079;28;20034;-86
2023/10/12 02:00:29;;;;;;;10.48;2.80;;;;;;;;;;5033367;28;20029;-86
2023/10/12 02:05:58;;;;;;;11.18;2.70;;;;;;;;;;5015044;28;20042;-86
2023/10/12 02:08:39;;;;;;;13.30;2.75;;;;;;;;;;5025834;28;20044;-86
2023/10/12 02:11:07;;;;;;;8.77;2.90;;;;;;;;;;5015663;28;20055;-85
2023/10/12 02:13:34;;;;;;;9.85;2.75;;;;;;;;;;5033488;28;20037;-84
2023/10/12 02:16:04;;;;;;;11.52;3.13;;;;;;;;;;5032570;28;20033;-86
2023/10/12 02:18:30;;;;;;;11.60;3.00;;;;;;;;;;5032834;28;20039;-84
2023/10/12 02:23:38;;;;;;;12.48;3.10;;;;;;;;;;5032610;28;20503;-83
2023/10/12 02:34:41;;;;;;;11.85;2.65;;;;;;;;;;5028309;28;20087;-85
2023/10/12 02:39:37;;;;;;;7.80;2.50;;;;;;;;;;5032323;28;20068;-85
2023/10/12 02:42:38;;;;;;;11.25;2.67;;;;;;;;;;5036120;28;20029;-86
2023/10/12 02:47:33;;;;;;;9.40;2.78;;;;;;;;;;5037928;28;20056;-86
2023/10/12 02:52:31;;;;;;;9.35;2.70;;;;;;;;;;5034388;28;20112;-85
2023/10/12 02:54:57;;;;;;;9.38;2.83;;;;;;;;;;5040322;28;20125;-85
2023/10/12 02:57:30;;;;;;;11.73;3.00;;;;;;;;;;5036290;28;20041;-85
2023/10/12 02:59:57;;;;;;;7.88;2.78;;;;;;;;;;5029011;28;20033;-84
2023/10/12 03:02:33;;;;;;;7.97;2.90;;;;;;;;;;5035515;28;20049;-85
2023/10/12 03:05:06;;;;;;;10.80;3.17;;;;;;;;;;5036013;28;20113;-85
2023/10/12 03:07:39;;;;;;;8.10;2.63;;;;;;;;;;5037224;28;20038;-85
2023/10/12 03:10:15;;;;;;;7.07;2.80;;;;;;;;;;5033293;28;20033;-85
2023/10/12 03:12:43;;;;;;;7.13;2.72;;;;;;;;;;5036892;28;20030;-85
2023/10/12 03:15:13;;;;;;;10.95;3.20;;;;;;;;;;5037179;28;20033;-84
2023/10/12 03:17:45;;;;;;;6.85;2.33;;;;;;;;;;5035727;28;20039;-84
2023/10/12 03:20:30;;;;;;;8.00;2.63;;;;;;;;;;5037158;28;20051;-85
2023/10/12 03:23:00;;;;;;;6.15;2.67;;;;;;;;;;5036932;28;20099;-85
2023/10/12 03:25:43;;;;;;;8.32;2.60;;;;;;;;;;5037045;28;20044;-85
2023/10/12 03:28:28;;;;;;;12.65;2.67;;;;;;;;;;5032361;28;20061;-85
2023/10/12 03:30:55;;;;;;;13.30;2.47;;;;;;;;;;5035357;28;20029;-85
2023/10/12 03:33:27;;;;;;;7.13;2.63;;;;;;;;;;5035618;28;20033;-84
2023/10/12 03:36:13;;;;;;;15.17;2.83;;;;;;;;;;5037006;28;20139;-84
2023/10/12 03:38:39;;;;;;;6.05;2.60;;;;;;;;;;5035968;28;20576;-85
2023/10/12 03:43:54;;;;;;;12.50;2.50;;;;;;;;;;5033377;28;20045;-86
2023/10/12 03:46:32;;;;;;;11.98;2.40;;;;;;;;;;5036741;28;20068;-83
2023/10/12 03:49:17;;;;;;;7.88;2.53;;;;;;;;;;5034532;28;20045;-85
2023/10/12 03:51:42;;;;;;;9.10;3.00;;;;;;;;;;5035201;28;20048;-85
2023/10/12 03:54:18;;;;;;;7.50;2.63;;;;;;;;;;5036602;28;20399;-85
2023/10/12 03:56:48;;;;;;;11.10;2.80;;;;;;;;;;5034486;28;20042;-85
2023/10/12 03:59:19;;;;;;;7.10;2.63;;;;;;;;;;5035853;28;20041;-83
2023/10/12 04:01:46;;;;;;;11.45;2.95;;;;;;;;;;5036148;28;20033;-87
2023/10/12 04:04:29;;;;;;;9.52;3.17;;;;;;;;;;5036170;28;20034;-84
2023/10/12 04:09:34;;;;;;;6.88;2.70;;;;;;;;;;5036332;28;20155;-86
2023/10/12 04:14:46;;;;;;;7.82;2.67;;;;;;;;;;5036263;28;20424;-87
2023/10/12 04:17:34;;;;;;;9.70;2.67;;;;;;;;;;5034818;28;20483;-87
2023/10/12 04:27:55;;;;;;;8.43;2.80;;;;;;;;;;5034486;28;20029;-85
2023/10/12 04:30:28;;;;;;;8.63;2.72;;;;;;;;;;5033549;28;20071;-85
2023/10/12 04:33:11;;;;;;;9.35;2.83;;;;;;;;;;5035457;28;20050;-86
2023/10/12 04:38:17;;;;;;;9.15;2.70;;;;;;;;;;5034687;28;20743;-84
2023/10/12 04:41:13;;;;;;;11.18;2.63;;;;;;;;;;5034817;28;20074;-85
2023/10/12 04:43:28;;;;;;;9.52;3.20;;;;;;;;;;5050536;28;20021;-85
2023/10/12 04:46:26;;;;;;;7.95;2.72;;;;;;;;;;5030681;28;20693;-86
2023/10/12 04:48:41;;;;;;;8.57;2.58;;;;;;;;;;5035354;28;20131;-86
2023/10/12 04:51:21;;;;;;;12.45;2.95;;;;;;;;;;5033685;28;20547;-85
2023/10/12 04:54:05;;;;;;;9.07;2.45;;;;;;;;;;5018644;28;20041;-86
2023/10/12 04:56:36;;;;;;;7.85;2.55;;;;;;;;;;5035682;28;20029;-84
2023/10/12 04:59:15;;;;;;;10.82;2.70;;;;;;;;;;5033735;28;20056;-85
2023/10/12 05:01:42;;;;;;;6.28;2.60;;;;;;;;;;5046817;28;20040;-85
2023/10/12 05:04:19;;;;;;;8.68;2.60;;;;;;;;;;5035437;28;20021;-86
2023/10/12 05:07:07;;;;;;;9.98;2.78;;;;;;;;;;5034209;28;20034;-85
2023/10/12 05:09:32;;;;;;;6.32;2.55;;;;;;;;;;5033868;28;20034;-85
2023/10/12 05:11:58;;;;;;;11.15;2.80;;;;;;;;;;5034680;28;20033;-85
2023/10/12 05:14:25;;;;;;;8.52;2.65;;;;;;;;;;5032094;28;20043;-84
2023/10/12 05:16:51;;;;;;;10.20;2.95;;;;;;;;;;5046490;28;20083;-84
2023/10/12 05:19:16;;;;;;;10.05;3.10;;;;;;;;;;5034134;28;20034;-84
2023/10/12 05:21:43;;;;;;;9.38;3.22;;;;;;;;;;5034784;28;20147;-83
2023/10/12 05:24:09;;;;;;;8.32;2.63;;;;;;;;;;5025885;28;20042;-85
2023/10/12 05:26:36;;;;;;;9.88;2.88;;;;;;;;;;5035025;28;20038;-85
2023/10/12 05:34:44;;;;;;;8.75;2.83;;;;;;;;;;5032818;28;20037;-84
2023/10/12 05:39:52;;;;;;;13.95;2.70;;;;;;;;;;5032795;28;20037;-84
2023/10/12 05:42:25;;;;;;;13.48;3.22;;;;;;;;;;5032132;28;20041;-85
2023/10/12 05:44:51;;;;;;;8.27;2.50;;;;;;;;;;5030798;28;20049;-86
2023/10/12 05:47:30;;;;;;;10.48;2.67;;;;;;;;;;5025867;28;20392;-85
2023/10/12 05:49:58;;;;;;;11.40;2.67;;;;;;;;;;5030712;28;20037;-84
2023/10/12 05:52:24;;;;;;;13.63;2.63;;;;;;;;;;5030452;28;20033;-85
2023/10/12 05:54:57;;;;;;;8.75;3.17;;;;;;;;;;5033552;28;20048;-86
2023/10/12 05:57:25;;;;;;;10.93;2.50;;;;;;;;;;5032699;28;20124;-83
2023/10/12 05:59:51;;;;;;;9.63;2.83;;;;;;;;;;5027569;28;20091;-84
2023/10/12 06:02:21;;;;;;;7.47;2.90;;;;;;;;;;5032943;28;20034;-84
2023/10/12 06:04:47;;;;;;;10.55;3.03;;;;;;;;;;5027696;28;20128;-86
2023/10/12 06:07:12;;;;;;;9.27;2.90;;;;;;;;;;5032560;28;20084;-83
2023/10/12 06:09:38;;;;;;;9.50;3.00;;;;;;;;;;5032826;28;20048;-83
2023/10/12 06:12:09;;;;;;;7.28;2.83;;;;;;;;;;5007647;28;20045;-85
2023/10/12 06:14:38;;;;;;;9.43;3.08;;;;;;;;;;5032714;28;20037;-85
2023/10/12 06:17:07;;;;;;;9.93;2.78;;;;;;;;;;5032887;28;20029;-85
2023/10/12 06:19:36;;;;;;;12.82;3.05;;;;;;;;;;5032381;28;20029;-84
2023/10/12 06:22:24;;;;;;;10.15;3.13;;;;;;;;;;5029726;28;20034;-87
2023/10/12 06:24:52;;;;;;;11.57;2.95;;;;;;;;;;5031370;28;20041;-83
2023/10/12 06:29:44;;;;;;;10.80;2.60;;;;;;;;;;5032711;28;20038;-85
2023/10/12 06:32:17;;;;;;;6.47;2.60;;;;;;;;;;5032230;28;20039;-85
2023/10/12 06:34:43;;;;;;;12.77;2.63;;;;;;;;;;5031325;28;20041;-84
2023/10/12 06:37:30;;;;;;;11.57;2.67;;;;;;;;;;5023504;28;20037;-84
2023/10/12 06:40:37;;;;;;;14.48;2.92;;;;;;;;;;5033568;28;20452;-85
2023/10/12 06:45:52;;;;;;;6.95;2.58;;;;;;;;;;5032827;28;20030;-84
2023/10/12 06:51:03;;;;;;;10.27;2.63;;;;;;;;;;5032124;28;20045;-82
2023/10/12 06:53:35;;;;;;;14.85;3.35;;;;;;;;;;5032904;28;20021;-82
2023/10/12 07:01:38;;;;;;;10.38;2.80;;;;;;;;;;5032621;28;20033;-85
2023/10/12 07:04:13;;;;;;;7.78;2.60;;;;;;;;;;5033688;28;20580;-85
2023/10/12 07:09:42;;;;;;;10.75;2.55;;;;;;;;;;5021839;28;20052;-85
2023/10/12 07:12:11;;;;;;;8.93;3.05;;;;;;;;;;5032053;28;20033;-85
2023/10/12 07:14:42;;;;;;;10.75;2.47;;;;;;;;;;5033129;28;20399;-85
2023/10/12 07:17:08;;;;;;;9.27;2.53;;;;;;;;;;5027206;28;20061;-85
2023/10/12 07:19:47;;;;;;;6.68;2.50;;;;;;;;;;5032643;28;20026;-85
2023/10/12 07:22:15;;;;;;;8.93;2.47;;;;;;;;;;5028687;28;20064;-85
2023/10/12 07:24:42;;;;;;;7.72;2.60;;;;;;;;;;5031197;28;20071;-81
2023/10/12 07:27:21;;;;;;;12.05;3.00;;;;;;;;;;5031058;28;20120;-84
2023/10/12 07:30:00;;;;;;;13.25;3.45;;;;;;;;;;5031970;28;20034;-86
2023/10/12 07:32:54;;;;;;;10.00;3.00;;;;;;;;;;5034725;28;20049;-84
2023/10/12 07:35:31;;;;;;;5.90;2.90;;;;;;;;;;5030929;28;20043;-86
2023/10/12 07:37:57;;;;;;;11.18;2.85;;;;;;;;;;5029535;28;20603;-86
2023/10/12 07:40:23;;;;;;;11.20;3.05;;;;;;;;;;5036693;28;20052;-85
2023/10/12 07:42:49;;;;;;;8.38;2.88;;;;;;;;;;5021692;28;20072;-85
2023/10/12 07:45:15;;;;;;;8.60;2.85;;;;;;;;;;5046980;28;20036;-85
2023/10/12 07:47:42;;;;;;;7.22;2.78;;;;;;;;;;5031446;28;20036;-84
2023/10/12 07:50:25;;;;;;;8.20;2.90;;;;;;;;;;5030477;28;20057;-84
2023/10/12 07:53:05;;;;;;;10.25;2.55;;;;;;;;;;5034478;28;20509;-83
2023/10/12 07:55:31;;;;;;;7.20;2.40;;;;;;;;;;5032716;28;20034;-84
2023/10/12 07:57:56;;;;;;;6.95;2.35;;;;;;;;;;5036615;28;20553;-84
2023/10/12 08:03:05;;;;;;;8.90;2.75;;;;;;;;;;5036721;28;20021;-86
2023/10/12 08:11:09;;;;;;;8.98;2.67;;;;;;;;;;5035021;28;20029;-86
2023/10/12 08:13:26;;;;;;;11.23;2.70;;;;;;;;;;5027220;28;20041;-86
2023/10/12 08:15:58;;;;;;;9.40;2.90;;;;;;;;;;5035027;28;20514;-85
2023/10/12 08:23:58;;;;;;;11.48;2.80;;;;;;;;;;5035202;28;20044;-85
2023/10/12 08:37:18;;;;;;;5.85;2.50;;;;;;;;;;5034852;28;20059;-85
2023/10/12 08:42:37;;;;;;;8.60;2.50;;;;;;;;;;5033673;28;20037;-85
2023/10/12 08:45:15;;;;;;;8.52;2.50;;;;;;;;;;5017514;28;20074;-85
2023/10/12 08:47:48;;;;;;;7.70;2.30;;;;;;;;;;5034533;28;20095;-85
2023/10/12 08:52:51;;;;;;;10.00;2.67;;;;;;;;;;5034325;28;20030;-85
2023/10/12 08:55:25;;;;;;;7.55;2.40;;;;;;;;;;5018655;28;20045;-85
2023/10/12 08:57:56;;;;;;;7.70;2.65;;;;;;;;;;5032734;28;20051;-85
2023/10/12 09:03:00;;;;;;;8.30;2.80;;;;;;;;;;5029772;28;20136;-83
2023/10/12 09:05:32;;;;;;;9.75;2.88;;;;;;;;;;5035609;28;20009;-84
2023/10/12 09:13:36;;;;;;;10.05;2.65;;;;;;;;;;5035261;28;19913;-84
2023/10/12 09:16:09;;;;;;;10.75;2.78;;;;;;;;;;5034871;28;20105;-84
2023/10/12 09:18:46;;;;;;;7.90;2.58;;;;;;;;;;5035150;28;20704;-84
2023/10/12 09:26:30;;;;;;;6.50;2.50;;;;;;;;;;5033796;28;20045;-83
2023/10/12 09:36:55;;;;;;;9.75;2.72;;;;;;;;;;5016276;28;20515;-86
2023/10/12 09:39:27;;;;;;;6.70;2.50;;;;;;;;;;5034111;28;20486;-86
2023/10/12 09:42:14;;;;;;;7.55;2.47;;;;;;;;;;5033489;28;20052;-86
2023/10/12 09:44:40;;;;;;;7.22;2.83;;;;;;;;;;5033845;28;20041;-85
2023/10/12 09:47:16;;;;;;;9.77;2.33;;;;;;;;;;5033844;28;20064;-85
2023/10/12 09:49:54;;;;;;;9.98;2.78;;;;;;;;;;5033153;28;20434;-84
2023/10/12 09:52:23;;;;;;;9.32;2.70;;;;;;;;;;5044073;28;20041;-84
2023/10/12 09:54:53;;;;;;;8.75;2.40;;;;;;;;;;5029215;28;20086;-85
2023/10/12 09:57:23;;;;;;;8.25;2.55;;;;;;;;;;5009067;28;20037;-84
2023/10/12 09:59:52;;;;;;;17.73;2.47;;;;;;;;;;5045711;28;20055;-85
2023/10/12 10:02:28;;;;;;;8.80;2.50;;;;;;;;;;5026411;28;20045;-85
2023/10/12 10:05:01;;;;;;;8.55;2.47;;;;;;;;;;5047646;28;20042;-85
2023/10/12 10:07:36;;;;;;;;;;;;;;;;;;5035073;28;20042;-84
2023/10/12 10:10:08;;;;;;;7.20;2.80;;;;;;;;;;5028250;28;19920;-86
2023/10/12 10:12:42;;;;;;;8.13;2.40;;;;;;;;;;5031515;28;20047;-86
2023/10/12 10:15:20;;;;;;;7.05;2.28;;;;;;;;;;5045168;28;20045;-86
2023/10/12 10:17:52;;;;;;;8.82;2.50;;;;;;;;;;5031985;28;20160;-86
2023/10/12 10:22:56;;;;;;;8.55;2.90;;;;;;;;;;5033229;28;20052;-86
2023/10/12 10:25:27;;;;;;;8.45;2.47;;;;;;;;;;5032001;28;20029;-86
2023/10/12 10:27:56;;;;;;;9.55;3.00;;;;;;;;;;5032465;28;20041;-86
2023/10/12 10:30:36;;;;;;;11.00;2.90;;;;;;;;;;5030111;28;20037;-86
2023/10/12 10:33:23;;;;;;;8.13;2.88;;;;;;;;;;5033239;28;20458;-85
2023/10/12 10:36:10;;;;;;;7.22;2.60;;;;;;;;;;5031304;28;20047;-85
2023/10/12 10:38:39;;;;;;;10.63;2.50;;;;;;;;;;5030967;28;20048;-85
2023/10/12 10:41:07;;;;;;;7.82;2.45;;;;;;;;;;5031571;28;20550;-86
2023/10/12 10:43:38;;;;;;;6.78;2.40;;;;;;;;;;5031602;28;20034;-85
2023/10/12 10:46:10;;;;;;;6.15;2.47;;;;;;;;;;5033194;28;20048;-85
2023/10/12 10:48:39;;;;;;;7.85;2.53;;;;;;;;;;5031913;28;20038;-86
2023/10/12 10:51:11;;;;;;;9.65;2.70;;;;;;;;;;5033174;28;20060;-86
2023/10/12 10:53:40;;;;;;;9.57;3.00;;;;;;;;;;5032971;28;20041;-85
2023/10/12 10:56:15;;;;;;;12.43;3.03;;;;;;;;;;5011031;28;20048;-86
2023/10/12 10:58:45;;;;;;;7.90;2.58;;;;;;;;;;5027287;28;20120;-86
2023/10/12 11:01:12;;;;;;;5.85;2.50;;;;;;;;;;5035719;28;20411;-85
2023/10/12 11:03:39;;;;;;;7.88;2.45;;;;;;;;;;5037414;28;20033;-85
2023/10/12 11:06:23;;;;;;;9.55;2.90;;;;;;;;;;5038029;28;20033;-85
2023/10/12 11:08:53;;;;;;;;;;;;;;;;;;5036139;28;20041;-85
2023/10/12 11:11:37;;;;;;;11.15;2.80;;;;;;;;;;5035203;28;19935;-85
2023/10/12 11:14:03;;;;;;;;;;;;;;;;;;5036660;28;20029;-85
2023/10/12 11:16:31;;;;;;;8.40;2.60;;;;;;;;;;5034747;28;19983;-85
2023/10/12 11:18:58;;;;;;;7.60;2.58;;;;;;;;;;5022867;28;20108;-84
2023/10/12 11:21:28;;;;;;;9.52;2.50;;;;;;;;;;5035407;28;20052;-85
2023/10/12 11:23:58;;;;;;;6.90;2.60;;;;;;;;;;5037931;28;20037;-84
2023/10/12 11:26:23;;;;;;;7.13;2.45;;;;;;;;;;5035970;28;20038;-85
2023/10/12 11:29:06;;;;;;;7.90;2.60;;;;;;;;;;5036729;28;20088;-85
2023/10/12 11:31:33;;;;;;;9.18;2.72;;;;;;;;;;5036294;28;20025;-85
2023/10/12 11:34:06;;;;;;;7.22;2.63;;;;;;;;;;5037205;28;20265;-85
2023/10/12 11:36:33;;;;;;;10.60;2.72;;;;;;;;;;5035749;28;20041;-85
2023/10/12 11:39:18;;;;;;;8.10;2.55;;;;;;;;;;5037943;28;20056;-85
2023/10/12 11:42:06;;;;;;;8.38;2.80;;;;;;;;;;5033376;28;20045;-85
2023/10/12 11:44:42;;;;;;;9.45;3.10;;;;;;;;;;5033998;28;20085;-85
2023/10/12 11:47:08;;;;;;;8.90;2.90;;;;;;;;;;5024007;28;20056;-84
2023/10/12 11:49:55;;;;;;;9.23;2.50;;;;;;;;;;5038920;28;20052;-85
2023/10/12 11:52:32;;;;;;;10.93;2.75;;;;;;;;;;5017568;28;20101;-85
2023/10/12 11:55:01;;;;;;;12.30;2.88;;;;;;;;;;5035444;28;20123;-85
2023/10/12 11:57:27;;;;;;;10.75;2.70;;;;;;;;;;5037095;28;20041;-85
2023/10/12 11:59:52;;;;;;;11.73;2.70;;;;;;;;;;5036773;28;20037;-85
2023/10/12 12:02:19;;;;;;;9.48;2.95;;;;;;;;;;5036309;28;20526;-85
2023/10/12 12:04:45;;;;;;;9.93;2.75;;;;;;;;;;5036638;28;20120;-85
2023/10/12 12:07:13;;;;;;;7.13;2.80;;;;;;;;;;5037713;28;20458;-85
2023/10/12 12:09:40;;;;;;;10.02;2.80;;;;;;;;;;5034407;28;20678;-85
2023/10/12 12:12:12;;;;;;;7.38;2.55;;;;;;;;;;5032955;28;20038;-87
2023/10/12 12:14:46;;;;;;;8.68;2.60;;;;;;;;;;5035480;28;20108;-86
2023/10/12 12:17:13;;;;;;;6.65;2.60;;;;;;;;;;5034638;28;20037;-88
2023/10/12 12:19:41;;;;;;;8.82;2.63;;;;;;;;;;5035432;28;20051;-87
2023/10/12 12:22:10;;;;;;;10.07;2.90;;;;;;;;;;5031623;28;20034;-87
2023/10/12 12:24:37;;;;;;;7.10;2.47;;;;;;;;;;5029784;28;20040;-89
2023/10/12 12:27:05;;;;;;;7.10;2.58;;;;;;;;;;5036311;28;20526;-87
2023/10/12 12:29:31;;;;;;;8.40;2.60;;;;;;;;;;5036559;28;20537;-87
2023/10/12 12:32:03;;;;;;;10.40;2.53;;;;;;;;;;5035684;28;20678;-87
2023/10/12 12:34:38;;;;;;;8.85;2.58;;;;;;;;;;5033413;28;20034;-87
2023/10/12 12:37:08;;;;;;;6.05;2.33;;;;;;;;;;5033919;28;20481;-88
2023/10/12 12:39:34;;;;;;;7.30;2.38;;;;;;;;;;5035742;28;20518;-89
2023/10/12 12:42:09;;;;;;;6.28;2.28;;;;;;;;;;5035997;28;20513;-88
2023/10/12 12:44:35;;;;;;;11.13;2.40;;;;;;;;;;5028056;28;20042;-87
2023/10/12 12:47:01;;;;;;;8.15;2.53;;;;;;;;;;5034921;28;20061;-89
2023/10/12 12:49:29;;;;;;;9.77;2.85;;;;;;;;;;5034446;28;20042;-88
2023/10/12 12:51:57;;;;;;;6.63;2.47;;;;;;;;;;5035829;28;20108;-87
2023/10/12 12:54:26;;;;;;;7.20;2.75;;;;;;;;;;5037633;28;20029;-89
2023/10/12 12:56:54;;;;;;;7.75;2.47;;;;;;;;;;5033733;28;20041;-87
2023/10/12 12:59:24;;;;;;;7.25;2.58;;;;;;;;;;5033461;28;20113;-88
2023/10/12 13:01:53;;;;;;;7.20;2.45;;;;;;;;;;5030979;28;20033;-88
2023/10/12 13:04:19;;;;;;;10.00;2.95;;;;;;;;;;5034957;28;20112;-88
2023/10/12 13:06:44;;;;;;;8.00;2.55;;;;;;;;;;5037287;28;20061;-88
2023/10/12 13:09:28;;;;;;;8.10;2.65;;;;;;;;;;5039067;28;20029;-88
2023/10/12 13:11:56;;;;;;;9.15;2.80;;;;;;;;;;5034727;28;20041;-87
2023/10/12 13:14:22;;;;;;;8.70;2.65;;;;;;;;;;5035321;28;20069;-84
2023/10/12 13:16:49;;;;;;;8.30;2.70;;;;;;;;;;5035160;28;20080;-86
2023/10/12 13:19:17;;;;;;;9.95;2.72;;;;;;;;;;5029857;28;20079;-88
2023/10/12 13:21:44;;;;;;;6.57;2.50;;;;;;;;;;5031161;28;20099;-88
2023/10/12 13:24:12;;;;;;;10.07;2.75;;;;;;;;;;5021810;28;20180;-89
2023/10/12 13:26:43;;;;;;;5.40;2.78;;;;;;;;;;5017600;28;20048;-88
2023/10/12 13:29:11;;;;;;;9.45;2.67;;;;;;;;;;5031691;28;20044;-88
2023/10/12 13:31:36;;;;;;;10.80;3.10;;;;;;;;;;5030776;28;20059;-88
2023/10/12 13:34:05;;;;;;;6.78;2.50;;;;;;;;;;5032094;28;20483;-87
2023/10/12 13:36:34;;;;;;;5.10;2.55;;;;;;;;;;5032838;28;20064;-88
2023/10/12 13:38:59;;;;;;;5.97;2.50;;;;;;;;;;5034798;28;20037;-85
2023/10/12 13:41:25;;;;;;;8.52;2.63;;;;;;;;;;5033753;28;20128;-87
2023/10/12 13:43:51;;;;;;;11.50;2.90;;;;;;;;;;5025511;28;20046;-88
2023/10/12 13:46:17;;;;;;;9.95;2.58;;;;;;;;;;5034625;28;20052;-87
2023/10/12 13:48:42;;;;;;;7.57;2.47;;;;;;;;;;5034680;28;20040;-87
2023/10/12 13:51:20;;;;;;;7.65;2.80;;;;;;;;;;5030489;28;20095;-89
2023/10/12 13:53:46;;;;;;;7.30;3.03;;;;;;;;;;5031536;28;20029;-89
2023/10/12 13:56:13;;;;;;;7.15;2.45;;;;;;;;;;5035245;28;20093;-89
2023/10/12 13:58:40;;;;;;;5.78;2.53;;;;;;;;;;5032806;28;20021;-89
2023/10/12 14:01:14;;;;;;;6.43;3.00;;;;;;;;;;5027614;28;20649;-88
2023/10/12 14:03:41;;;;;;;9.90;3.10;;;;;;;;;;5032097;28;20034;-88
2023/10/12 14:06:07;;;;;;;8.52;2.83;;;;;;;;;;5031599;28;20037;-88
2023/10/12 14:08:36;;;;;;;11.88;2.83;;;;;;;;;;5032303;28;20044;-89
2023/10/12 14:11:03;;;;;;;7.65;2.70;;;;;;;;;;5032636;28;20037;-88
2023/10/12 14:13:33;;;;;;;7.65;2.80;;;;;;;;;;5039379;28;20514;-88
2023/10/12 14:15:59;;;;;;;6.57;2.70;;;;;;;;;;5031405;28;20048;-87
2023/10/12 14:18:28;;;;;;;6.32;2.70;;;;;;;;;;5023055;28;20030;-89
2023/10/12 14:20:54;;;;;;;10.63;2.47;;;;;;;;;;5028964;28;20060;-88
2023/10/12 14:23:20;;;;;;;5.75;2.83;;;;;;;;;;5032707;28;20466;-88
2023/10/12 14:25:47;;;;;;;9.52;2.63;;;;;;;;;;5032569;28;20564;-87
2023/10/12 14:28:17;;;;;;;10.40;2.40;;;;;;;;;;5027694;28;20045;-88
2023/10/12 14:30:50;;;;;;;13.27;2.90;;;;;;;;;;5026735;28;20038;-88
2023/10/12 14:33:16;;;;;;;;;;;;;;;;;;5029110;28;20060;-90
2023/10/12 14:35:42;;;;;;;8.43;2.60;;;;;;;;;;5023917;28;19953;-91
2023/10/12 14:38:14;;;;;;;6.47;2.65;;;;;;;;;;5030405;28;20057;-91
2023/10/12 14:40:44;;;;;;;8.98;2.60;;;;;;;;;;5032265;28;20037;-90
2023/10/12 14:43:12;;;;;;;5.50;2.72;;;;;;;;;;5022819;28;20523;-91
2023/10/12 14:45:44;;;;;;;8.80;2.90;;;;;;;;;;5030034;28;20076;-91
2023/10/12 14:48:13;;;;;;;7.78;2.50;;;;;;;;;;5027595;28;20057;-91
2023/10/12 14:50:45;;;;;;;12.10;2.60;;;;;;;;;;5030608;28;20029;-91
2023/10/12 14:53:35;;;;;;;8.93;2.75;;;;;;;;;;5031291;28;20492;-88
2023/10/12 14:56:09;;;;;;;6.80;2.70;;;;;;;;;;5020098;28;20128;-91
2023/10/12 14:58:38;;;;;;;7.38;2.45;;;;;;;;;;5030484;28;20025;-88
2023/10/12 15:01:27;;;;;;;9.45;2.65;;;;;;;;;;5032177;28;20640;-90
2023/10/12 15:04:02;;;;;;;10.00;2.70;;;;;;;;;;5014960;28;20144;-90
2023/10/12 15:07:00;;;;;;;8.65;2.60;;;;;;;;;;5027962;28;20030;-90
2023/10/12 15:10:04;;;;;;;8.68;2.78;;;;;;;;;;5052320;23;20076;-89
2023/10/12 15:12:33;;;;;;;5.55;2.42;;;;;;;;;;5033266;28;20116;-82
2023/10/12 15:15:09;;;;;;;7.60;2.85;;;;;;;;;;5033427;28;20128;-83
2023/10/12 15:17:39;;;;;;;6.53;2.65;;;;;;;;;;5032638;28;20065;-83
2023/10/12 15:20:12;;;;;;;5.63;2.50;;;;;;;;;;5000640;28;20038;-83
2023/10/12 15:22:38;;;;;;;5.15;2.50;;;;;;;;;;5025834;28;20047;-88
2023/10/12 15:25:05;;;;;;;10.65;2.60;;;;;;;;;;5029539;28;20105;-87
2023/10/12 15:27:32;;;;;;;5.72;2.70;;;;;;;;;;5025642;28;20088;-87
2023/10/12 15:29:59;;;;;;;8.30;2.90;;;;;;;;;;5018179;28;20113;-87
2023/10/12 15:32:25;;;;;;;6.15;2.40;;;;;;;;;;5018617;28;20411;-87
2023/10/12 15:34:51;;;;;;;8.38;2.75;;;;;;;;;;5029071;28;20439;-86
2023/10/12 15:37:17;;;;;;;6.22;2.78;;;;;;;;;;5023212;28;20130;-87
2023/10/12 15:39:46;;;;;;;7.38;2.50;;;;;;;;;;5005766;28;20077;-87
2023/10/12 15:42:12;;;;;;;7.25;2.72;;;;;;;;;;5015413;28;20052;-86
2023/10/12 15:44:41;;;;;;;5.30;2.60;;;;;;;;;;5021122;28;20120;-87
2023/10/12 15:47:06;;;;;;;9.60;2.90;;;;;;;;;;5026066;28;20040;-87
2023/10/12 15:49:32;;;;;;;9.02;3.38;;;;;;;;;;5025875;28;20021;-87
2023/10/12 15:52:00;;;;;;;7.18;3.03;;;;;;;;;;5019267;28;20046;-88
2023/10/12 15:54:26;;;;;;;9.23;3.45;;;;;;;;;;5028672;28;20451;-85
2023/10/12 15:56:55;;;;;;;11.68;3.92;;;;;;;;;;5029451;28;20500;-86
2023/10/12 15:59:26;;;;;;;14.45;3.38;;;;;;;;;;5023557;28;20049;-85
2023/10/12 16:01:51;;;;;;;14.05;3.47;;;;;;;;;;5020755;28;20420;-85
2023/10/12 16:04:19;;;;;;;9.05;3.20;;;;;;;;;;5025177;28;20037;-85
2023/10/12 16:06:46;;;;;;;10.48;3.20;;;;;;;;;;5031916;28;20092;-85
2023/10/12 16:09:20;;;;;;;9.57;3.15;;;;;;;;;;5026863;28;20116;-84
2023/10/12 16:11:47;;;;;;;9.57;3.03;;;;;;;;;;5019399;28;20117;-84
2023/10/12 16:14:16;;;;;;;8.70;2.70;;;;;;;;;;5020326;28;20033;-86
2023/10/12 16:16:45;;;;;;;11.20;2.90;;;;;;;;;;5031761;28;20042;-85
2023/10/12 16:19:15;;;;;;;11.48;3.08;;;;;;;;;;5027347;28;20479;-86
2023/10/12 16:21:41;;;;;;;11.55;3.42;;;;;;;;;;5021609;28;20033;-86
2023/10/12 16:24:08;;;;;;;6.53;2.88;;;;;;;;;;5016559;28;20049;-86
2023/10/12 16:26:34;;;;;;;7.00;2.97;;;;;;;;;;5032907;28;20044;-86
2023/10/12 16:29:00;;;;;;;11.77;3.10;;;;;;;;;;5028355;28;20037;-86
2023/10/12 16:31:34;;;;;;;7.25;2.85;;;;;;;;;;5022694;28;20037;-85
2023/10/12 16:34:03;;;;;;;7.95;3.00;;;;;;;;;;5019132;28;20036;-84
2023/10/12 16:36:30;;;;;;;12.18;3.10;;;;;;;;;;5028381;28;20062;-84
2023/10/12 16:38:55;;;;;;;9.15;3.13;;;;;;;;;;5026203;28;20053;-84
2023/10/12 16:41:21;;;;;;;12.10;3.35;;;;;;;;;;5024085;28;20045;-85
2023/10/12 16:43:47;;;;;;;13.88;3.90;;;;;;;;;;5020483;28;20025;-85
2023/10/12 16:46:17;;;;;;;10.15;4.95;;;;;;;;;;5023267;28;20037;-84
2023/10/12 16:48:42;;;;;;;13.32;4.50;;;;;;;;;;5024969;28;20029;-85
2023/10/12 16:51:08;;;;;;;11.65;4.07;;;;;;;;;;5025609;28;20140;-85
2023/10/12 16:53:36;;;;;;;14.35;3.50;;;;;;;;;;5022044;28;20557;-86
2023/10/12 16:56:02;;;;;;;10.27;3.90;;;;;;;;;;5012603;28;20045;-85
2023/10/12 16:58:28;;;;;;;15.43;3.72;;;;;;;;;;5033104;28;20022;-85
2023/10/12 17:00:54;;;;;;;24.70;4.60;;;;;;;;;;5028145;28;20045;-88
2023/10/12 17:03:20;;;;;;;21.75;4.72;;;;;;;;;;5021794;28;20072;-87
2023/10/12 17:05:45;;;;;;;13.63;4.35;;;;;;;;;;5016196;28;20088;-87
2023/10/12 17:08:11;;;;;;;20.95;4.55;;;;;;;;;;5033207;28;20522;-87
2023/10/12 17:10:36;;;;;;;15.35;4.10;;;;;;;;;;5029012;28;20471;-87
2023/10/12 17:13:02;;;;;;;12.52;4.30;;;;;;;;;;5024087;28;20033;-86